sensor_id;sensor_type;location;lat;lon;timestamp;pressure;altitude;pressure_sealevel;temperature;humidity
57562;BME280;43397;51.530;5.974;2022-08-25T00:00:13;101263.31;;;24.05;65.64
57562;BME280;43397;51.530;5.974;2022-08-25T00:02:39;101267.41;;;24.12;64.17
57562;BME280;43397;51.530;5.974;2022-08-25T00:05:09;101261.88;;;23.97;63.79
57562;BME280;43397;51.530;5.974;2022-08-25T00:07:34;101260.25;;;24.11;63.67
57562;BME280;43397;51.530;5.974;2022-08-25T00:10:00;101268.22;;;23.98;63.82
57562;BME280;43397;51.530;5.974;2022-08-25T00:12:26;101265.03;;;24.06;63.31
57562;BME280;43397;51.530;5.974;2022-08-25T00:14:52;101260.31;;;24.09;63.12
57562;BME280;43397;51.530;5.974;2022-08-25T00:17:18;101259.88;;;24.01;62.94
57562;BME280;43397;51.530;5.974;2022-08-25T00:19:44;101264.44;;;24.00;63.06
57562;BME280;43397;51.530;5.974;2022-08-25T00:22:11;101258.75;;;24.05;63.11
57562;BME280;43397;51.530;5.974;2022-08-25T00:24:37;101263.84;;;23.95;62.61
57562;BME280;43397;51.530;5.974;2022-08-25T00:27:03;101261.75;;;23.85;62.54
57562;BME280;43397;51.530;5.974;2022-08-25T00:29:30;101261.28;;;23.92;62.03
57562;BME280;43397;51.530;5.974;2022-08-25T00:31:56;101265.91;;;23.58;63.20
57562;BME280;43397;51.530;5.974;2022-08-25T00:34:26;101265.75;;;23.77;62.62
57562;BME280;43397;51.530;5.974;2022-08-25T00:36:52;101275.41;;;23.83;62.14
57562;BME280;43397;51.530;5.974;2022-08-25T00:39:23;101271.34;;;23.74;60.75
57562;BME280;43397;51.530;5.974;2022-08-25T00:41:51;101272.22;;;23.75;60.88
57562;BME280;43397;51.530;5.974;2022-08-25T00:44:18;101265.47;;;23.82;60.46
57562;BME280;43397;51.530;5.974;2022-08-25T00:46:47;101265.75;;;23.77;60.27
57562;BME280;43397;51.530;5.974;2022-08-25T00:49:15;101269.94;;;23.67;60.03
57562;BME280;43397;51.530;5.974;2022-08-25T00:51:44;101270.88;;;23.66;59.69
57562;BME280;43397;51.530;5.974;2022-08-25T00:54:14;101267.91;;;23.55;60.05
57562;BME280;43397;51.530;5.974;2022-08-25T00:56:43;101265.72;;;23.46;59.79
57562;BME280;43397;51.530;5.974;2022-08-25T00:59:09;101268.97;;;23.52;59.21
57562;BME280;43397;51.530;5.974;2022-08-25T01:01:36;101269.84;;;23.53;59.36
57562;BME280;43397;51.530;5.974;2022-08-25T01:04:03;101269.47;;;23.43;59.48
57562;BME280;43397;51.530;5.974;2022-08-25T01:06:29;101276.72;;;23.42;59.80
57562;BME280;43397;51.530;5.974;2022-08-25T01:08:58;101276.91;;;23.55;58.94
57562;BME280;43397;51.530;5.974;2022-08-25T01:11:24;101270.09;;;23.48;59.33
57562;BME280;43397;51.530;5.974;2022-08-25T01:13:53;101278.16;;;23.50;59.13
57562;BME280;43397;51.530;5.974;2022-08-25T01:16:21;101268.50;;;23.44;58.15
57562;BME280;43397;51.530;5.974;2022-08-25T01:18:49;101275.66;;;23.45;58.10
57562;BME280;43397;51.530;5.974;2022-08-25T01:21:18;101273.59;;;23.34;58.16
57562;BME280;43397;51.530;5.974;2022-08-25T01:23:45;101270.88;;;23.34;59.11
57562;BME280;43397;51.530;5.974;2022-08-25T01:26:14;101274.13;;;23.41;57.48
57562;BME280;43397;51.530;5.974;2022-08-25T01:28:42;101270.44;;;23.42;57.37
57562;BME280;43397;51.530;5.974;2022-08-25T01:31:09;101276.28;;;23.34;58.14
57562;BME280;43397;51.530;5.974;2022-08-25T01:33:35;101276.16;;;23.20;58.03
57562;BME280;43397;51.530;5.974;2022-08-25T01:36:00;101280.53;;;23.23;57.07
57562;BME280;43397;51.530;5.974;2022-08-25T01:38:27;101280.16;;;23.13;57.67
57562;BME280;43397;51.530;5.974;2022-08-25T01:40:53;101273.53;;;23.18;57.71
57562;BME280;43397;51.530;5.974;2022-08-25T01:43:25;101276.75;;;23.09;57.51
57562;BME280;43397;51.530;5.974;2022-08-25T01:45:51;101271.69;;;23.19;58.57
57562;BME280;43397;51.530;5.974;2022-08-25T01:48:17;101269.22;;;23.14;56.99
57562;BME280;43397;51.530;5.974;2022-08-25T01:50:43;101273.22;;;23.07;58.10
57562;BME280;43397;51.530;5.974;2022-08-25T01:53:12;101274.81;;;23.11;56.75
57562;BME280;43397;51.530;5.974;2022-08-25T01:55:43;101262.66;;;23.18;56.83
57562;BME280;43397;51.530;5.974;2022-08-25T01:58:09;101269.41;;;23.11;58.14
57562;BME280;43397;51.530;5.974;2022-08-25T02:00:35;101277.59;;;23.10;57.52
57562;BME280;43397;51.530;5.974;2022-08-25T02:03:01;101270.25;;;23.12;58.42
57562;BME280;43397;51.530;5.974;2022-08-25T02:05:27;101272.66;;;23.18;56.36
57562;BME280;43397;51.530;5.974;2022-08-25T02:07:52;101275.63;;;23.13;56.79
57562;BME280;43397;51.530;5.974;2022-08-25T02:10:18;101277.00;;;23.05;56.75
57562;BME280;43397;51.530;5.974;2022-08-25T02:12:45;101282.66;;;23.00;56.26
57562;BME280;43397;51.530;5.974;2022-08-25T02:15:14;101289.81;;;23.01;56.91
57562;BME280;43397;51.530;5.974;2022-08-25T02:17:40;101280.16;;;22.95;57.87
57562;BME280;43397;51.530;5.974;2022-08-25T02:20:07;101287.84;;;23.05;56.53
57562;BME280;43397;51.530;5.974;2022-08-25T02:22:33;101281.09;;;22.94;56.91
57562;BME280;43397;51.530;5.974;2022-08-25T02:24:58;101281.84;;;22.98;56.69
57562;BME280;43397;51.530;5.974;2022-08-25T02:27:24;101279.69;;;22.87;56.79
57562;BME280;43397;51.530;5.974;2022-08-25T02:29:51;101278.91;;;22.85;56.64
57562;BME280;43397;51.530;5.974;2022-08-25T02:32:17;101285.59;;;22.95;56.69
57562;BME280;43397;51.530;5.974;2022-08-25T02:34:43;101277.91;;;22.86;56.97
57562;BME280;43397;51.530;5.974;2022-08-25T02:37:09;101282.22;;;22.90;56.42
57562;BME280;43397;51.530;5.974;2022-08-25T02:39:35;101270.50;;;22.90;56.70
57562;BME280;43397;51.530;5.974;2022-08-25T02:42:01;101271.00;;;22.80;56.64
57562;BME280;43397;51.530;5.974;2022-08-25T02:44:27;101278.16;;;22.82;56.89
57562;BME280;43397;51.530;5.974;2022-08-25T02:46:54;101281.53;;;22.87;57.14
57562;BME280;43397;51.530;5.974;2022-08-25T02:49:20;101279.63;;;22.71;57.03
57562;BME280;43397;51.530;5.974;2022-08-25T02:51:46;101273.25;;;22.72;56.83
57562;BME280;43397;51.530;5.974;2022-08-25T02:54:11;101271.56;;;22.70;56.89
57562;BME280;43397;51.530;5.974;2022-08-25T02:56:41;101269.00;;;22.84;56.63
57562;BME280;43397;51.530;5.974;2022-08-25T02:59:07;101263.69;;;22.83;57.34
57562;BME280;43397;51.530;5.974;2022-08-25T03:01:33;101267.75;;;22.74;57.29
57562;BME280;43397;51.530;5.974;2022-08-25T03:04:00;101269.91;;;22.67;56.79
57562;BME280;43397;51.530;5.974;2022-08-25T03:06:26;101268.00;;;22.52;57.84
57562;BME280;43397;51.530;5.974;2022-08-25T03:08:53;101262.03;;;22.63;57.52
57562;BME280;43397;51.530;5.974;2022-08-25T03:11:19;101266.47;;;22.46;57.42
57562;BME280;43397;51.530;5.974;2022-08-25T03:13:46;101256.03;;;22.38;57.95
57562;BME280;43397;51.530;5.974;2022-08-25T03:16:12;101259.69;;;22.37;58.18
57562;BME280;43397;51.530;5.974;2022-08-25T03:18:39;101260.16;;;22.28;57.68
57562;BME280;43397;51.530;5.974;2022-08-25T03:21:07;101257.31;;;22.49;57.14
57562;BME280;43397;51.530;5.974;2022-08-25T03:23:40;101253.78;;;22.47;57.17
57562;BME280;43397;51.530;5.974;2022-08-25T03:26:06;101248.31;;;22.48;56.64
57562;BME280;43397;51.530;5.974;2022-08-25T03:28:32;101249.81;;;22.36;56.95
57562;BME280;43397;51.530;5.974;2022-08-25T03:30:59;101250.63;;;22.38;56.87
57562;BME280;43397;51.530;5.974;2022-08-25T03:33:25;101246.22;;;22.53;59.32
57562;BME280;43397;51.530;5.974;2022-08-25T03:35:51;101242.56;;;22.72;58.88
57562;BME280;43397;51.530;5.974;2022-08-25T03:38:18;101240.78;;;22.71;60.64
57562;BME280;43397;51.530;5.974;2022-08-25T03:40:44;101234.56;;;22.69;59.22
57562;BME280;43397;51.530;5.974;2022-08-25T03:43:10;101240.34;;;22.80;59.52
57562;BME280;43397;51.530;5.974;2022-08-25T03:45:39;101225.47;;;22.87;57.57
57562;BME280;43397;51.530;5.974;2022-08-25T03:48:06;101227.19;;;22.72;55.83
57562;BME280;43397;51.530;5.974;2022-08-25T03:50:32;101221.69;;;22.56;56.58
57562;BME280;43397;51.530;5.974;2022-08-25T03:52:58;101228.59;;;22.62;56.15
57562;BME280;43397;51.530;5.974;2022-08-25T03:55:26;101222.00;;;22.50;57.11
57562;BME280;43397;51.530;5.974;2022-08-25T03:57:54;101224.47;;;22.55;56.51
57562;BME280;43397;51.530;5.974;2022-08-25T04:00:21;101219.13;;;22.36;57.00
57562;BME280;43397;51.530;5.974;2022-08-25T04:02:48;101211.88;;;22.19;56.70
57562;BME280;43397;51.530;5.974;2022-08-25T04:05:14;101216.78;;;22.30;57.72
57562;BME280;43397;51.530;5.974;2022-08-25T04:07:40;101209.75;;;22.26;57.83
57562;BME280;43397;51.530;5.974;2022-08-25T04:10:07;101211.91;;;22.36;58.41
57562;BME280;43397;51.530;5.974;2022-08-25T04:12:35;101211.25;;;22.31;57.68
57562;BME280;43397;51.530;5.974;2022-08-25T04:15:02;101206.91;;;22.10;57.83
57562;BME280;43397;51.530;5.974;2022-08-25T04:17:28;101206.44;;;22.02;58.39
57562;BME280;43397;51.530;5.974;2022-08-25T04:19:54;101206.66;;;22.14;59.61
57562;BME280;43397;51.530;5.974;2022-08-25T04:22:20;101214.75;;;22.33;58.24
57562;BME280;43397;51.530;5.974;2022-08-25T04:24:46;101213.88;;;22.33;59.65
57562;BME280;43397;51.530;5.974;2022-08-25T04:27:11;101207.31;;;22.19;57.90
57562;BME280;43397;51.530;5.974;2022-08-25T04:29:39;101214.63;;;22.00;57.61
57562;BME280;43397;51.530;5.974;2022-08-25T04:32:05;101216.09;;;21.88;58.05
57562;BME280;43397;51.530;5.974;2022-08-25T04:34:30;101210.88;;;22.03;57.46
57562;BME280;43397;51.530;5.974;2022-08-25T04:36:57;101212.66;;;22.04;58.35
57562;BME280;43397;51.530;5.974;2022-08-25T04:39:23;101218.38;;;21.97;58.45
57562;BME280;43397;51.530;5.974;2022-08-25T04:41:50;101215.22;;;21.88;57.87
57562;BME280;43397;51.530;5.974;2022-08-25T04:44:16;101215.78;;;21.94;58.56
57562;BME280;43397;51.530;5.974;2022-08-25T04:46:43;101217.81;;;22.08;57.99
57562;BME280;43397;51.530;5.974;2022-08-25T04:49:09;101216.44;;;21.82;59.05
57562;BME280;43397;51.530;5.974;2022-08-25T04:51:38;101220.00;;;21.83;58.31
57562;BME280;43397;51.530;5.974;2022-08-25T04:54:05;101222.41;;;21.89;57.77
57562;BME280;43397;51.530;5.974;2022-08-25T04:56:33;101216.75;;;21.93;58.29
57562;BME280;43397;51.530;5.974;2022-08-25T04:59:02;101206.59;;;21.80;58.68
57562;BME280;43397;51.530;5.974;2022-08-25T05:01:28;101203.91;;;21.80;57.82
57562;BME280;43397;51.530;5.974;2022-08-25T05:03:57;101207.22;;;21.86;58.84
57562;BME280;43397;51.530;5.974;2022-08-25T05:06:24;101204.69;;;21.82;59.13
57562;BME280;43397;51.530;5.974;2022-08-25T05:08:50;101205.66;;;21.81;59.07
57562;BME280;43397;51.530;5.974;2022-08-25T05:11:17;101206.72;;;21.78;58.35
57562;BME280;43397;51.530;5.974;2022-08-25T05:13:44;101206.84;;;21.75;58.45
57562;BME280;43397;51.530;5.974;2022-08-25T05:16:10;101204.38;;;21.70;58.31
57562;BME280;43397;51.530;5.974;2022-08-25T05:18:36;101206.13;;;21.71;59.15
57562;BME280;43397;51.530;5.974;2022-08-25T05:21:06;101204.63;;;21.83;59.00
57562;BME280;43397;51.530;5.974;2022-08-25T05:23:32;101202.22;;;21.77;59.45
57562;BME280;43397;51.530;5.974;2022-08-25T05:26:02;101192.22;;;21.79;58.95
57562;BME280;43397;51.530;5.974;2022-08-25T05:28:28;101202.09;;;21.80;59.61
57562;BME280;43397;51.530;5.974;2022-08-25T05:30:57;101193.34;;;21.92;59.26
57562;BME280;43397;51.530;5.974;2022-08-25T05:33:23;101208.22;;;21.84;59.96
57562;BME280;43397;51.530;5.974;2022-08-25T05:35:49;101206.19;;;21.89;60.00
57562;BME280;43397;51.530;5.974;2022-08-25T05:38:16;101212.69;;;21.85;60.21
57562;BME280;43397;51.530;5.974;2022-08-25T05:40:42;101221.44;;;21.90;60.15
57562;BME280;43397;51.530;5.974;2022-08-25T05:43:08;101219.38;;;21.77;60.57
57562;BME280;43397;51.530;5.974;2022-08-25T05:45:34;101225.06;;;21.71;61.09
57562;BME280;43397;51.530;5.974;2022-08-25T05:47:59;101217.22;;;21.84;60.72
57562;BME280;43397;51.530;5.974;2022-08-25T05:50:26;101229.50;;;21.91;60.51
57562;BME280;43397;51.530;5.974;2022-08-25T05:52:52;101230.44;;;21.90;61.39
57562;BME280;43397;51.530;5.974;2022-08-25T05:55:19;101237.31;;;21.97;60.85
57562;BME280;43397;51.530;5.974;2022-08-25T05:57:45;101233.88;;;21.94;60.72
57562;BME280;43397;51.530;5.974;2022-08-25T06:00:12;101235.72;;;21.93;60.74
57562;BME280;43397;51.530;5.974;2022-08-25T06:02:38;101231.72;;;22.01;60.64
57562;BME280;43397;51.530;5.974;2022-08-25T06:05:05;101231.97;;;21.96;60.58
57562;BME280;43397;51.530;5.974;2022-08-25T06:07:31;101242.00;;;21.94;61.08
57562;BME280;43397;51.530;5.974;2022-08-25T06:09:57;101236.13;;;22.03;60.07
57562;BME280;43397;51.530;5.974;2022-08-25T06:12:24;101227.84;;;22.06;61.49
57562;BME280;43397;51.530;5.974;2022-08-25T06:14:50;101226.81;;;22.09;61.17
57562;BME280;43397;51.530;5.974;2022-08-25T06:17:16;101218.28;;;22.16;60.84
57562;BME280;43397;51.530;5.974;2022-08-25T06:19:42;101223.72;;;22.16;60.59
57562;BME280;43397;51.530;5.974;2022-08-25T06:22:08;101222.78;;;22.17;60.36
57562;BME280;43397;51.530;5.974;2022-08-25T06:24:33;101231.69;;;22.19;60.88
57562;BME280;43397;51.530;5.974;2022-08-25T06:27:00;101228.84;;;22.23;60.93
57562;BME280;43397;51.530;5.974;2022-08-25T06:29:27;101233.16;;;22.27;61.02
57562;BME280;43397;51.530;5.974;2022-08-25T06:31:53;101238.03;;;22.37;60.82
57562;BME280;43397;51.530;5.974;2022-08-25T06:34:19;101233.22;;;22.43;60.91
57562;BME280;43397;51.530;5.974;2022-08-25T06:36:45;101231.19;;;22.48;59.98
57562;BME280;43397;51.530;5.974;2022-08-25T06:39:11;101234.19;;;22.59;60.42
57562;BME280;43397;51.530;5.974;2022-08-25T06:41:36;101232.38;;;22.59;60.37
57562;BME280;43397;51.530;5.974;2022-08-25T06:44:03;101233.16;;;22.62;60.70
57562;BME280;43397;51.530;5.974;2022-08-25T06:46:30;101230.38;;;22.63;60.77
57562;BME280;43397;51.530;5.974;2022-08-25T06:48:57;101242.13;;;22.79;59.94
57562;BME280;43397;51.530;5.974;2022-08-25T06:51:26;101233.63;;;22.87;59.70
57562;BME280;43397;51.530;5.974;2022-08-25T06:53:52;101236.63;;;22.98;60.27
57562;BME280;43397;51.530;5.974;2022-08-25T06:56:20;101233.97;;;22.97;59.84
57562;BME280;43397;51.530;5.974;2022-08-25T06:58:46;101224.50;;;23.06;59.52
57562;BME280;43397;51.530;5.974;2022-08-25T07:01:13;101224.44;;;23.07;60.08
57562;BME280;43397;51.530;5.974;2022-08-25T07:03:42;101224.03;;;23.15;59.12
57562;BME280;43397;51.530;5.974;2022-08-25T07:06:10;101224.56;;;23.22;59.27
57562;BME280;43397;51.530;5.974;2022-08-25T07:08:36;101219.03;;;23.23;59.97
57562;BME280;43397;51.530;5.974;2022-08-25T07:11:04;101216.97;;;23.28;59.68
57562;BME280;43397;51.530;5.974;2022-08-25T07:13:30;101220.53;;;23.45;58.12
57562;BME280;43397;51.530;5.974;2022-08-25T07:15:56;101219.75;;;23.42;57.92
57562;BME280;43397;51.530;5.974;2022-08-25T07:18:22;101220.38;;;23.48;58.01
57562;BME280;43397;51.530;5.974;2022-08-25T07:20:49;101211.13;;;23.52;58.58
57562;BME280;43397;51.530;5.974;2022-08-25T07:23:15;101216.28;;;23.56;58.17
57562;BME280;43397;51.530;5.974;2022-08-25T07:25:41;101222.81;;;23.68;58.07
57562;BME280;43397;51.530;5.974;2022-08-25T07:28:07;101224.59;;;23.69;58.55
57562;BME280;43397;51.530;5.974;2022-08-25T07:30:33;101216.03;;;23.77;58.06
57562;BME280;43397;51.530;5.974;2022-08-25T07:32:59;101206.75;;;23.81;58.11
57562;BME280;43397;51.530;5.974;2022-08-25T07:35:24;101217.94;;;23.91;58.11
57562;BME280;43397;51.530;5.974;2022-08-25T07:37:53;101219.16;;;24.01;60.18
57562;BME280;43397;51.530;5.974;2022-08-25T07:40:22;101215.88;;;24.10;59.53
57562;BME280;43397;51.530;5.974;2022-08-25T07:42:50;101216.78;;;24.11;57.60
57562;BME280;43397;51.530;5.974;2022-08-25T07:45:17;101214.38;;;24.20;57.27
57562;BME280;43397;51.530;5.974;2022-08-25T07:47:44;101209.00;;;24.35;57.48
57562;BME280;43397;51.530;5.974;2022-08-25T07:50:11;101205.81;;;24.42;57.87
57562;BME280;43397;51.530;5.974;2022-08-25T07:52:37;101202.09;;;24.59;57.66
57562;BME280;43397;51.530;5.974;2022-08-25T07:55:06;101202.00;;;24.75;56.62
57562;BME280;43397;51.530;5.974;2022-08-25T07:57:33;101199.41;;;24.88;56.91
57562;BME280;43397;51.530;5.974;2022-08-25T07:59:58;101204.75;;;25.04;55.32
57562;BME280;43397;51.530;5.974;2022-08-25T08:02:25;101200.97;;;25.21;55.28
57562;BME280;43397;51.530;5.974;2022-08-25T08:04:52;101206.72;;;25.31;56.82
57562;BME280;43397;51.530;5.974;2022-08-25T08:07:19;101205.91;;;25.43;54.77
57562;BME280;43397;51.530;5.974;2022-08-25T08:09:45;101208.78;;;25.54;56.86
57562;BME280;43397;51.530;5.974;2022-08-25T08:12:12;101209.53;;;25.71;57.06
57562;BME280;43397;51.530;5.974;2022-08-25T08:14:39;101208.06;;;25.79;54.43
57562;BME280;43397;51.530;5.974;2022-08-25T08:17:05;101201.34;;;25.85;55.00
57562;BME280;43397;51.530;5.974;2022-08-25T08:19:31;101199.56;;;25.98;55.00
57562;BME280;43397;51.530;5.974;2022-08-25T08:21:57;101193.91;;;26.01;52.86
57562;BME280;43397;51.530;5.974;2022-08-25T08:24:23;101196.22;;;26.08;54.63
57562;BME280;43397;51.530;5.974;2022-08-25T08:26:49;101196.38;;;26.32;55.02
57562;BME280;43397;51.530;5.974;2022-08-25T08:29:16;101189.31;;;26.42;53.66
57562;BME280;43397;51.530;5.974;2022-08-25T08:31:42;101194.78;;;26.42;52.39
57562;BME280;43397;51.530;5.974;2022-08-25T08:34:10;101189.81;;;26.61;53.22
57562;BME280;43397;51.530;5.974;2022-08-25T08:36:36;101185.00;;;26.91;58.44
57562;BME280;43397;51.530;5.974;2022-08-25T08:39:02;101187.97;;;26.87;54.40
57562;BME280;43397;51.530;5.974;2022-08-25T08:41:50;101172.78;;;27.09;52.62
57562;BME280;43397;51.530;5.974;2022-08-25T08:44:24;101173.06;;;27.17;54.70
57562;BME280;43397;51.530;5.974;2022-08-25T08:47:04;101187.69;;;27.42;54.44
57562;BME280;43397;51.530;5.974;2022-08-25T08:49:33;101184.16;;;27.53;54.96
57562;BME280;43397;51.530;5.974;2022-08-25T08:52:02;101184.53;;;27.72;52.57
57562;BME280;43397;51.530;5.974;2022-08-25T08:54:32;101177.03;;;27.87;50.04
57562;BME280;43397;51.530;5.974;2022-08-25T08:57:04;101173.03;;;28.04;52.98
57562;BME280;43397;51.530;5.974;2022-08-25T08:59:40;101163.34;;;28.11;50.17
57562;BME280;43397;51.530;5.974;2022-08-25T09:02:13;101165.06;;;28.36;52.68
57562;BME280;43397;51.530;5.974;2022-08-25T09:04:44;101169.31;;;28.40;51.38
57562;BME280;43397;51.530;5.974;2022-08-25T09:07:16;101178.81;;;28.59;51.83
57562;BME280;43397;51.530;5.974;2022-08-25T09:09:44;101180.44;;;28.61;53.19
57562;BME280;43397;51.530;5.974;2022-08-25T09:12:12;101178.72;;;28.83;47.79
57562;BME280;43397;51.530;5.974;2022-08-25T09:14:56;101184.81;;;28.98;46.82
57562;BME280;43397;51.530;5.974;2022-08-25T09:17:39;101176.72;;;28.96;46.94
57562;BME280;43397;51.530;5.974;2022-08-25T09:20:43;101179.34;;;28.98;48.96
57562;BME280;43397;51.530;5.974;2022-08-25T09:23:23;101173.91;;;29.09;44.75
57562;BME280;43397;51.530;5.974;2022-08-25T09:25:59;101169.66;;;29.39;47.58
57562;BME280;43397;51.530;5.974;2022-08-25T09:28:31;101170.84;;;29.57;48.16
57562;BME280;43397;51.530;5.974;2022-08-25T09:31:04;101171.81;;;29.79;48.90
57562;BME280;43397;51.530;5.974;2022-08-25T09:33:32;101171.94;;;29.88;47.30
57562;BME280;43397;51.530;5.974;2022-08-25T09:35:58;101175.13;;;29.93;49.60
57562;BME280;43397;51.530;5.974;2022-08-25T09:38:26;101173.09;;;30.07;48.29
57562;BME280;43397;51.530;5.974;2022-08-25T09:40:54;101170.66;;;30.25;47.93
57562;BME280;43397;51.530;5.974;2022-08-25T09:43:22;101174.66;;;30.21;45.14
57562;BME280;43397;51.530;5.974;2022-08-25T09:45:56;101166.34;;;30.11;43.45
57562;BME280;43397;51.530;5.974;2022-08-25T09:48:25;101165.13;;;30.36;42.49
57562;BME280;43397;51.530;5.974;2022-08-25T09:50:56;101168.13;;;30.54;47.24
57562;BME280;43397;51.530;5.974;2022-08-25T09:53:23;101159.63;;;30.57;44.21
57562;BME280;43397;51.530;5.974;2022-08-25T09:55:53;101159.16;;;30.73;44.68
57562;BME280;43397;51.530;5.974;2022-08-25T09:58:23;101162.16;;;30.91;45.96
57562;BME280;43397;51.530;5.974;2022-08-25T10:01:05;101159.59;;;30.78;42.30
57562;BME280;43397;51.530;5.974;2022-08-25T10:03:32;101164.78;;;30.50;42.50
57562;BME280;43397;51.530;5.974;2022-08-25T10:06:03;101160.75;;;30.54;42.54
57562;BME280;43397;51.530;5.974;2022-08-25T10:08:32;101144.59;;;31.03;43.45
57562;BME280;43397;51.530;5.974;2022-08-25T10:11:02;101147.66;;;31.20;41.14
57562;BME280;43397;51.530;5.974;2022-08-25T10:13:37;101138.09;;;31.45;42.54
57562;BME280;43397;51.530;5.974;2022-08-25T10:16:06;101138.97;;;31.65;42.85
57562;BME280;43397;51.530;5.974;2022-08-25T10:18:34;101140.56;;;31.58;43.09
57562;BME280;43397;51.530;5.974;2022-08-25T10:21:03;101134.06;;;31.78;40.07
57562;BME280;43397;51.530;5.974;2022-08-25T10:23:31;101131.06;;;32.10;37.15
57562;BME280;43397;51.530;5.974;2022-08-25T10:26:00;101128.00;;;31.94;39.60
57562;BME280;43397;51.530;5.974;2022-08-25T10:28:31;101117.03;;;32.04;37.94
57562;BME280;43397;51.530;5.974;2022-08-25T10:31:02;101122.50;;;32.23;37.81
57562;BME280;43397;51.530;5.974;2022-08-25T10:33:41;101119.63;;;32.05;36.73
57562;BME280;43397;51.530;5.974;2022-08-25T10:36:14;101117.72;;;32.15;36.83
57562;BME280;43397;51.530;5.974;2022-08-25T10:38:44;101101.09;;;32.17;34.26
57562;BME280;43397;51.530;5.974;2022-08-25T10:41:24;101107.00;;;32.32;35.86
57562;BME280;43397;51.530;5.974;2022-08-25T10:44:04;101100.72;;;32.49;34.51
57562;BME280;43397;51.530;5.974;2022-08-25T10:46:37;101098.00;;;32.39;37.09
57562;BME280;43397;51.530;5.974;2022-08-25T10:49:11;101088.63;;;32.79;36.64
57562;BME280;43397;51.530;5.974;2022-08-25T10:51:49;101083.56;;;32.75;37.99
57562;BME280;43397;51.530;5.974;2022-08-25T10:54:31;101078.13;;;33.20;39.40
57562;BME280;43397;51.530;5.974;2022-08-25T10:57:10;101080.06;;;32.83;38.56
57562;BME280;43397;51.530;5.974;2022-08-25T10:59:50;101077.84;;;32.58;33.34
57562;BME280;43397;51.530;5.974;2022-08-25T11:05:31;101075.16;;;32.76;34.29
57562;BME280;43397;51.530;5.974;2022-08-25T11:08:05;101069.84;;;32.65;32.07
57562;BME280;43397;51.530;5.974;2022-08-25T11:10:38;101070.38;;;32.78;33.10
57562;BME280;43397;51.530;5.974;2022-08-25T11:13:10;101071.97;;;32.99;33.56
57562;BME280;43397;51.530;5.974;2022-08-25T11:15:43;101061.69;;;32.26;32.19
57562;BME280;43397;51.530;5.974;2022-08-25T11:18:13;101063.44;;;32.74;33.05
57562;BME280;43397;51.530;5.974;2022-08-25T11:20:45;101063.53;;;32.83;29.25
57562;BME280;43397;51.530;5.974;2022-08-25T11:23:18;101058.63;;;33.04;28.84
57562;BME280;43397;51.530;5.974;2022-08-25T11:25:50;101063.25;;;33.13;29.92
57562;BME280;43397;51.530;5.974;2022-08-25T11:28:21;101058.78;;;33.12;30.81
57562;BME280;43397;51.530;5.974;2022-08-25T11:30:49;101058.78;;;33.48;30.31
57562;BME280;43397;51.530;5.974;2022-08-25T11:33:16;101065.09;;;33.58;29.38
57562;BME280;43397;51.530;5.974;2022-08-25T11:35:48;101050.91;;;33.35;30.24
57562;BME280;43397;51.530;5.974;2022-08-25T11:38:27;101056.59;;;33.52;28.71
57562;BME280;43397;51.530;5.974;2022-08-25T11:41:07;101059.50;;;33.50;27.56
57562;BME280;43397;51.530;5.974;2022-08-25T11:43:51;101052.00;;;33.25;30.01
57562;BME280;43397;51.530;5.974;2022-08-25T11:46:29;101051.25;;;33.05;27.70
57562;BME280;43397;51.530;5.974;2022-08-25T11:49:22;101046.59;;;33.51;27.50
57562;BME280;43397;51.530;5.974;2022-08-25T11:51:51;101042.78;;;33.34;28.67
57562;BME280;43397;51.530;5.974;2022-08-25T11:54:20;101039.69;;;33.65;27.94
57562;BME280;43397;51.530;5.974;2022-08-25T11:56:53;101042.16;;;33.22;28.79
57562;BME280;43397;51.530;5.974;2022-08-25T11:59:59;101038.41;;;33.23;29.64
57562;BME280;43397;51.530;5.974;2022-08-25T12:02:37;101030.44;;;33.92;30.06
57562;BME280;43397;51.530;5.974;2022-08-25T12:05:06;101020.91;;;33.50;29.68
57562;BME280;43397;51.530;5.974;2022-08-25T12:08:04;101015.66;;;34.01;30.78
57562;BME280;43397;51.530;5.974;2022-08-25T12:10:52;101008.94;;;34.04;29.78
57562;BME280;43397;51.530;5.974;2022-08-25T12:13:43;101013.94;;;33.56;29.39
57562;BME280;43397;51.530;5.974;2022-08-25T12:16:39;101004.81;;;33.73;28.32
57562;BME280;43397;51.530;5.974;2022-08-25T12:19:26;101016.56;;;33.84;27.09
57562;BME280;43397;51.530;5.974;2022-08-25T12:21:53;101005.06;;;34.40;27.72
57562;BME280;43397;51.530;5.974;2022-08-25T12:24:35;101007.53;;;34.17;29.08
57562;BME280;43397;51.530;5.974;2022-08-25T12:27:03;101016.78;;;33.90;28.49
57562;BME280;43397;51.530;5.974;2022-08-25T12:29:37;101014.94;;;34.43;28.60
57562;BME280;43397;51.530;5.974;2022-08-25T12:32:16;101012.00;;;34.79;28.92
57562;BME280;43397;51.530;5.974;2022-08-25T12:35:09;101017.31;;;34.38;28.56
57562;BME280;43397;51.530;5.974;2022-08-25T12:37:54;101012.09;;;33.83;28.19
57562;BME280;43397;51.530;5.974;2022-08-25T12:40:26;101006.75;;;34.07;29.07
57562;BME280;43397;51.530;5.974;2022-08-25T12:43:02;101010.16;;;34.19;30.01
57562;BME280;43397;51.530;5.974;2022-08-25T12:45:36;101007.06;;;34.22;31.01
57562;BME280;43397;51.530;5.974;2022-08-25T12:48:39;101005.56;;;34.36;30.00
57562;BME280;43397;51.530;5.974;2022-08-25T12:51:07;101000.53;;;34.05;28.71
57562;BME280;43397;51.530;5.974;2022-08-25T12:53:38;101005.09;;;34.14;28.12
57562;BME280;43397;51.530;5.974;2022-08-25T12:56:07;101004.09;;;34.15;30.03
57562;BME280;43397;51.530;5.974;2022-08-25T12:58:45;100998.41;;;33.99;30.00
57562;BME280;43397;51.530;5.974;2022-08-25T13:01:18;101000.03;;;34.10;30.33
57562;BME280;43397;51.530;5.974;2022-08-25T13:04:19;101007.38;;;34.53;31.47